Time;durP1;ratioP1;P1;durP2;ratioP2;P2;SDS_P1;SDS_P2;PMS_P1;PMS_P2;Temp;Humidity;BMP_temperature;BMP_pressure;BME280_temperature;BME280_humidity;BME280_pressure;Samples;Min_cycle;Max_cycle;Signal;HPM_P1;HPM_P2
2021/09/08 00:01:21;;;;;;;13.30;7.68;;;15.40;99.90;;;;;;4988331;28;20034;-82
2021/09/08 00:03:47;;;;;;;10.40;7.82;;;15.40;99.90;;;;;;4988665;28;20034;-82
2021/09/08 00:06:12;;;;;;;12.68;8.10;;;15.40;99.90;;;;;;4988044;28;20494;-82
2021/09/08 00:08:38;;;;;;;10.70;7.45;;;15.40;99.90;;;;;;4988387;28;20026;-82
2021/09/08 00:11:03;;;;;;;11.95;7.70;;;15.40;99.90;;;;;;5004547;28;20046;-82
2021/09/08 00:13:29;;;;;;;12.02;7.20;;;15.50;99.90;;;;;;4988499;28;20060;-82
2021/09/08 00:15:56;;;;;;;11.75;7.82;;;15.40;99.90;;;;;;4987923;28;20038;-82
2021/09/08 00:18:22;;;;;;;12.90;7.90;;;15.40;99.90;;;;;;5004263;28;20034;-82
2021/09/08 00:20:48;;;;;;;10.82;7.88;;;15.50;99.90;;;;;;5004380;28;20040;-82
2021/09/08 00:23:13;;;;;;;12.07;8.18;;;15.40;99.90;;;;;;5004314;28;20035;-82
2021/09/08 00:25:39;;;;;;;12.00;8.45;;;15.40;99.90;;;;;;4987991;28;20089;-82
2021/09/08 00:28:05;;;;;;;12.05;8.60;;;15.40;99.90;;;;;;5004241;28;20095;-82
2021/09/08 00:30:30;;;;;;;14.07;8.80;;;15.40;99.90;;;;;;5004076;28;20027;-82
2021/09/08 00:32:56;;;;;;;13.15;8.70;;;15.30;99.90;;;;;;5004694;28;20027;-82
2021/09/08 00:35:22;;;;;;;12.20;7.50;;;15.20;99.90;;;;;;5004021;28;20030;-82
2021/09/08 00:37:48;;;;;;;11.40;7.18;;;15.20;99.90;;;;;;5004384;28;20031;-82
2021/09/08 00:40:16;;;;;;;12.45;8.68;;;15.20;99.90;;;;;;5005346;28;20011;-82
2021/09/08 00:42:43;;;;;;;13.98;8.35;;;15.10;99.90;;;;;;4988855;28;20026;-82
2021/09/08 00:45:10;;;;;;;14.48;8.20;;;15.10;99.90;;;;;;5004436;28;20031;-82
2021/09/08 00:47:38;;;;;;;12.43;8.57;;;15.10;99.90;;;;;;4987287;28;20054;-83
2021/09/08 00:50:04;;;;;;;14.40;9.27;;;15.00;99.90;;;;;;4987424;28;20529;-83
2021/09/08 00:52:30;;;;;;;12.15;8.43;;;15.00;99.90;;;;;;4987548;28;20483;-82
2021/09/08 00:54:58;;;;;;;12.70;8.65;;;15.00;99.90;;;;;;5003980;28;20110;-82
2021/09/08 00:57:26;;;;;;;11.52;7.70;;;15.00;99.90;;;;;;4987951;28;20049;-83
2021/09/08 00:59:52;;;;;;;14.32;8.60;;;15.00;99.90;;;;;;4987520;28;20045;-83
2021/09/08 01:02:19;;;;;;;12.98;8.98;;;14.90;99.90;;;;;;5003484;28;20544;-82
2021/09/08 01:04:45;;;;;;;11.70;7.97;;;14.90;99.90;;;;;;4988772;28;20086;-83
2021/09/08 01:07:11;;;;;;;14.98;8.75;;;14.90;99.90;;;;;;5003107;28;20042;-83
2021/09/08 01:09:37;;;;;;;11.45;7.93;;;14.90;99.90;;;;;;4987355;28;20533;-83
2021/09/08 01:12:07;;;;;;;12.15;7.97;;;14.80;99.90;;;;;;5003367;28;20042;-83
2021/09/08 01:14:33;;;;;;;13.80;8.40;;;14.80;99.90;;;;;;5003611;28;20035;-85
2021/09/08 01:16:59;;;;;;;12.05;8.43;;;14.80;99.90;;;;;;4986732;28;20031;-85
2021/09/08 01:19:26;;;;;;;15.80;7.13;;;14.80;99.90;;;;;;5003488;28;20054;-83
2021/09/08 01:21:52;;;;;;;13.23;8.73;;;14.80;99.90;;;;;;5003135;28;20090;-83
2021/09/08 01:24:17;;;;;;;11.30;7.68;;;14.80;99.90;;;;;;5003230;28;20026;-83
2021/09/08 01:26:47;;;;;;;12.00;8.18;;;14.80;99.90;;;;;;5002968;28;20056;-83
2021/09/08 01:29:13;;;;;;;;;;;14.90;99.90;;;;;;4987398;28;20029;-83
2021/09/08 01:31:39;;;;;;;11.40;7.70;;;14.90;99.90;;;;;;4986824;28;19945;-83
2021/09/08 01:34:05;;;;;;;13.00;7.57;;;14.90;99.90;;;;;;5003089;28;20471;-83
2021/09/08 01:36:39;;;;;;;12.93;8.82;;;14.90;99.90;;;;;;5002878;28;20074;-84
2021/09/08 01:39:05;;;;;;;11.13;8.27;;;14.90;99.90;;;;;;4986782;28;20043;-83
2021/09/08 01:41:30;;;;;;;12.60;8.60;;;15.00;99.90;;;;;;4986634;28;20469;-83
2021/09/08 01:43:56;;;;;;;15.25;9.15;;;15.00;99.90;;;;;;4970752;28;20027;-83
2021/09/08 01:46:23;;;;;;;12.38;9.02;;;15.00;99.90;;;;;;4970203;28;20066;-82
2021/09/08 01:48:49;;;;;;;12.50;8.55;;;15.00;99.90;;;;;;4986460;28;20105;-82
2021/09/08 01:51:15;;;;;;;13.55;8.50;;;15.00;99.90;;;;;;4986675;28;20045;-83
2021/09/08 01:53:41;;;;;;;10.77;7.68;;;14.90;99.90;;;;;;5002619;28;20029;-82
2021/09/08 01:56:07;;;;;;;11.70;8.02;;;14.90;99.90;;;;;;5002798;28;20093;-82
2021/09/08 01:58:33;;;;;;;11.70;7.82;;;14.90;99.90;;;;;;5002674;28;20106;-82
2021/09/08 02:01:02;;;;;;;13.35;8.02;;;14.90;99.90;;;;;;5002650;28;20078;-83
2021/09/08 02:03:27;;;;;;;13.07;8.40;;;14.90;99.90;;;;;;4986527;28;20022;-85
2021/09/08 02:05:53;;;;;;;11.52;7.78;;;15.00;99.90;;;;;;5002430;28;20122;-82
2021/09/08 02:08:18;;;;;;;13.90;8.88;;;14.90;99.90;;;;;;5002190;28;20031;-82
2021/09/08 02:10:44;;;;;;;11.98;8.45;;;15.00;99.90;;;;;;4986374;28;20561;-82
2021/09/08 02:13:11;;;;;;;14.13;9.05;;;15.00;99.90;;;;;;4970405;28;20045;-82
2021/09/08 02:15:37;;;;;;;11.75;7.75;;;15.00;99.90;;;;;;5002258;28;20090;-81
2021/09/08 02:18:03;;;;;;;10.90;7.63;;;15.00;99.90;;;;;;4969703;28;20031;-82
2021/09/08 02:20:28;;;;;;;11.93;7.53;;;15.00;99.90;;;;;;5002216;28;20035;-82
2021/09/08 02:22:54;;;;;;;12.18;7.85;;;15.00;99.90;;;;;;5002187;28;20059;-82
2021/09/08 02:25:19;;;;;;;12.93;7.85;;;15.00;99.90;;;;;;5001888;28;20058;-82
2021/09/08 02:27:45;;;;;;;10.63;7.35;;;15.00;99.90;;;;;;5002147;28;20158;-82
2021/09/08 02:30:13;;;;;;;11.25;7.63;;;14.90;99.90;;;;;;5002213;28;20081;-82
2021/09/08 02:32:38;;;;;;;9.55;6.78;;;14.90;99.90;;;;;;5002027;28;20035;-82
2021/09/08 02:35:05;;;;;;;12.63;7.07;;;14.90;99.90;;;;;;5002085;28;20065;-82
2021/09/08 02:37:31;;;;;;;10.80;6.57;;;14.90;99.90;;;;;;4985792;28;20038;-82
2021/09/08 02:39:56;;;;;;;15.38;7.68;;;14.90;99.90;;;;;;5001912;28;20364;-82
2021/09/08 02:42:22;;;;;;;11.48;7.32;;;14.90;99.90;;;;;;5002005;28;20042;-82
2021/09/08 02:44:49;;;;;;;11.05;6.97;;;14.80;99.90;;;;;;5002061;28;20027;-83
2021/09/08 02:47:16;;;;;;;12.55;6.32;;;14.80;99.90;;;;;;5001205;28;20062;-82
2021/09/08 02:49:42;;;;;;;11.82;7.65;;;14.80;99.90;;;;;;5001815;28;20125;-82
2021/09/08 02:52:08;;;;;;;12.77;7.22;;;14.70;99.90;;;;;;4985541;28;20465;-82
2021/09/08 02:54:34;;;;;;;10.80;7.30;;;14.80;99.90;;;;;;4985371;28;20051;-82
2021/09/08 02:56:59;;;;;;;12.63;7.53;;;14.80;99.90;;;;;;4986168;28;20042;-82
2021/09/08 02:59:25;;;;;;;12.00;7.35;;;14.80;99.90;;;;;;4988165;28;20034;-83
2021/09/08 03:01:50;;;;;;;9.63;6.70;;;14.80;99.90;;;;;;5001997;28;20042;-83
2021/09/08 03:04:16;;;;;;;12.82;7.53;;;14.70;99.90;;;;;;4986733;28;20038;-83
2021/09/08 03:06:42;;;;;;;11.07;7.43;;;14.70;99.90;;;;;;5001465;28;20035;-83
2021/09/08 03:09:07;;;;;;;10.18;6.57;;;14.50;99.90;;;;;;5001188;28;20022;-83
2021/09/08 03:11:33;;;;;;;12.77;6.75;;;14.50;99.90;;;;;;5001768;28;20483;-82
2021/09/08 03:13:59;;;;;;;10.68;6.57;;;14.50;99.90;;;;;;5002687;28;20058;-83
2021/09/08 03:16:24;;;;;;;10.77;7.22;;;14.50;99.90;;;;;;5005535;28;20041;-83
2021/09/08 03:18:50;;;;;;;11.15;6.57;;;14.50;99.90;;;;;;4989192;28;20490;-83
2021/09/08 03:21:15;;;;;;;12.52;7.10;;;14.50;99.90;;;;;;5005470;28;20054;-82
2021/09/08 03:23:41;;;;;;;10.18;7.03;;;14.60;99.90;;;;;;5005413;28;20026;-83
2021/09/08 03:26:07;;;;;;;11.43;7.47;;;14.50;99.90;;;;;;5005483;28;20054;-83
2021/09/08 03:28:32;;;;;;;9.98;6.82;;;14.60;99.90;;;;;;5005198;28;20034;-83
2021/09/08 03:30:58;;;;;;;11.57;7.57;;;14.50;99.90;;;;;;4973002;28;20107;-82
2021/09/08 03:33:23;;;;;;;13.18;7.72;;;14.50;99.90;;;;;;4990250;28;20034;-82
2021/09/08 03:35:49;;;;;;;12.52;7.93;;;14.40;99.90;;;;;;5005210;28;20039;-82
2021/09/08 03:38:15;;;;;;;11.52;8.23;;;14.40;99.90;;;;;;4988746;28;20039;-82
2021/09/08 03:40:40;;;;;;;11.70;7.38;;;14.30;99.90;;;;;;5004916;28;20046;-82
2021/09/08 03:43:06;;;;;;;11.57;7.45;;;14.30;99.90;;;;;;5005095;28;20118;-82
2021/09/08 03:45:32;;;;;;;11.48;7.10;;;14.30;99.90;;;;;;4972248;28;20094;-82
2021/09/08 03:47:58;;;;;;;10.63;7.43;;;14.30;99.90;;;;;;4988597;28;20055;-82
2021/09/08 03:50:24;;;;;;;10.45;7.35;;;14.30;99.90;;;;;;5005242;28;20084;-82
2021/09/08 03:52:50;;;;;;;11.10;8.13;;;14.30;99.90;;;;;;4988821;28;20035;-82
2021/09/08 03:55:16;;;;;;;12.02;7.38;;;14.30;99.90;;;;;;5004837;28;20035;-82
2021/09/08 03:57:42;;;;;;;10.68;6.82;;;14.40;99.90;;;;;;5004963;28;20065;-83
2021/09/08 04:00:09;;;;;;;12.48;6.80;;;14.30;99.90;;;;;;5004781;28;20030;-82
2021/09/08 04:02:35;;;;;;;9.93;6.60;;;14.20;99.90;;;;;;4988649;28;20165;-81
2021/09/08 04:05:03;;;;;;;14.07;8.00;;;14.10;99.90;;;;;;4988374;28;20058;-82
2021/09/08 04:07:29;;;;;;;11.65;7.45;;;14.10;99.90;;;;;;4989712;28;20062;-83
2021/09/08 04:09:54;;;;;;;11.20;6.82;;;14.10;99.90;;;;;;4972473;28;20035;-82
2021/09/08 04:12:20;;;;;;;10.57;7.82;;;14.10;99.90;;;;;;4972273;28;20034;-82
2021/09/08 04:14:46;;;;;;;11.75;8.18;;;14.10;99.90;;;;;;4972200;28;20031;-82
2021/09/08 04:17:11;;;;;;;11.30;7.53;;;14.00;99.90;;;;;;4972159;28;20069;-82
2021/09/08 04:19:37;;;;;;;12.13;7.63;;;14.00;99.90;;;;;;5004482;28;20051;-82
2021/09/08 04:22:03;;;;;;;12.77;7.18;;;14.00;99.90;;;;;;5004749;28;20041;-83
2021/09/08 04:24:28;;;;;;;12.52;7.32;;;14.00;99.90;;;;;;5003892;28;20105;-83
2021/09/08 04:26:54;;;;;;;9.38;6.30;;;14.00;99.90;;;;;;5004188;28;20054;-82
2021/09/08 04:29:20;;;;;;;12.65;8.00;;;13.90;99.90;;;;;;4987899;28;20054;-82
2021/09/08 04:31:45;;;;;;;10.75;7.30;;;13.90;99.90;;;;;;5004324;28;20054;-82
2021/09/08 04:34:11;;;;;;;10.18;7.38;;;13.90;99.90;;;;;;5008264;28;20019;-82
2021/09/08 04:36:36;;;;;;;11.60;7.00;;;13.90;99.90;;;;;;4992073;28;20042;-82
2021/09/08 04:39:05;;;;;;;11.98;6.72;;;13.80;99.90;;;;;;4968127;29;20106;-84
2021/09/08 04:41:31;;;;;;;11.35;7.85;;;13.90;99.90;;;;;;4984503;28;20062;-82
2021/09/08 04:43:57;;;;;;;14.18;8.60;;;13.90;99.90;;;;;;4984601;28;20038;-81
2021/09/08 04:46:23;;;;;;;15.85;8.35;;;13.90;99.90;;;;;;4984181;28;20054;-82
2021/09/08 04:48:48;;;;;;;11.80;8.10;;;13.90;99.90;;;;;;4984218;28;20051;-82
2021/09/08 04:51:14;;;;;;;12.60;8.25;;;13.90;99.90;;;;;;4968269;28;20119;-82
2021/09/08 04:53:39;;;;;;;11.50;8.32;;;13.90;99.90;;;;;;4993505;28;20042;-82
2021/09/08 04:56:05;;;;;;;11.57;7.53;;;13.90;99.90;;;;;;4987223;28;20042;-82
2021/09/08 04:58:31;;;;;;;11.55;7.78;;;13.90;99.90;;;;;;4971165;28;20027;-82
2021/09/08 05:00:56;;;;;;;13.77;8.00;;;13.90;99.90;;;;;;4971027;28;20382;-82
2021/09/08 05:03:22;;;;;;;12.75;8.48;;;13.90;99.90;;;;;;4987390;28;20027;-82
2021/09/08 05:05:48;;;;;;;11.63;7.32;;;14.00;99.90;;;;;;5003160;28;20053;-82
2021/09/08 05:08:14;;;;;;;12.77;8.55;;;14.00;99.90;;;;;;4996443;28;20051;-82
2021/09/08 05:10:39;;;;;;;12.23;7.80;;;14.00;99.90;;;;;;4967822;29;20067;-82
2021/09/08 05:13:05;;;;;;;15.65;8.77;;;14.00;99.90;;;;;;4983288;28;20054;-82
2021/09/08 05:15:30;;;;;;;14.80;8.45;;;14.10;99.90;;;;;;4982994;28;20035;-83
2021/09/08 05:17:56;;;;;;;12.48;7.93;;;14.10;99.90;;;;;;4976241;28;20027;-82
2021/09/08 05:20:26;;;;;;;11.27;7.70;;;14.10;99.90;;;;;;5002269;28;20037;-82
2021/09/08 05:22:52;;;;;;;13.93;7.93;;;14.10;99.90;;;;;;4966466;29;20064;-82
2021/09/08 05:25:18;;;;;;;11.35;7.65;;;14.10;99.90;;;;;;4982818;28;20046;-82
2021/09/08 05:27:43;;;;;;;12.38;8.30;;;14.10;99.90;;;;;;4982739;28;20038;-82
2021/09/08 05:30:09;;;;;;;12.82;7.95;;;14.10;99.90;;;;;;4982769;28;20054;-82
2021/09/08 05:32:35;;;;;;;12.13;8.85;;;14.10;99.90;;;;;;4999797;28;20086;-82
2021/09/08 05:35:00;;;;;;;13.05;8.07;;;14.20;99.90;;;;;;4986087;28;20035;-82
2021/09/08 05:37:26;;;;;;;14.38;8.90;;;14.20;99.90;;;;;;4984916;28;20058;-82
2021/09/08 05:39:52;;;;;;;14.30;9.32;;;14.20;99.90;;;;;;4969752;28;20027;-83
2021/09/08 05:42:17;;;;;;;13.00;8.23;;;14.30;99.90;;;;;;4969945;28;20054;-83
2021/09/08 05:44:43;;;;;;;11.13;7.25;;;14.30;99.90;;;;;;4985817;28;20035;-82
2021/09/08 05:47:09;;;;;;;16.27;8.95;;;14.30;99.90;;;;;;4979773;23;20058;-82
2021/09/08 05:49:34;;;;;;;13.80;8.30;;;14.30;99.90;;;;;;5003058;28;20038;-82
2021/09/08 05:52:00;;;;;;;13.45;8.73;;;14.30;99.90;;;;;;4985907;28;20045;-82
2021/09/08 05:54:25;;;;;;;13.05;8.38;;;14.40;99.90;;;;;;4985925;28;20038;-82
2021/09/08 05:56:51;;;;;;;11.55;8.20;;;14.40;99.90;;;;;;5001673;28;20035;-81
2021/09/08 05:59:17;;;;;;;12.88;7.50;;;14.40;99.90;;;;;;5002236;28;20121;-81
2021/09/08 06:01:43;;;;;;;12.48;7.78;;;14.50;99.90;;;;;;5002144;28;20490;-82
2021/09/08 06:04:09;;;;;;;13.02;7.57;;;14.50;99.90;;;;;;4986011;28;20507;-82
2021/09/08 06:06:34;;;;;;;10.90;7.15;;;14.50;99.90;;;;;;5002172;28;20047;-82
2021/09/08 06:09:00;;;;;;;11.70;7.65;;;14.70;99.90;;;;;;4986174;28;20035;-82
2021/09/08 06:11:26;;;;;;;10.48;7.47;;;14.80;99.90;;;;;;5001921;28;20094;-81
2021/09/08 06:13:53;;;;;;;10.90;7.43;;;14.90;99.90;;;;;;5001842;28;20065;-81
2021/09/08 06:16:21;;;;;;;10.98;7.60;;;14.90;99.90;;;;;;4985389;28;20049;-82
2021/09/08 06:18:46;;;;;;;13.20;7.43;;;15.00;99.90;;;;;;4985429;28;20075;-81
2021/09/08 06:21:12;;;;;;;9.25;6.43;;;15.10;99.90;;;;;;4985299;28;20034;-82
2021/09/08 06:23:37;;;;;;;10.13;6.38;;;15.20;99.90;;;;;;4986757;28;20106;-82
2021/09/08 06:26:03;;;;;;;11.48;7.32;;;15.20;99.90;;;;;;4968852;28;20058;-82
2021/09/08 06:28:30;;;;;;;11.20;7.63;;;15.40;99.90;;;;;;4968889;28;20090;-81
2021/09/08 06:30:56;;;;;;;10.38;6.65;;;15.50;99.90;;;;;;4969020;28;20043;-82
2021/09/08 06:33:21;;;;;;;9.25;6.38;;;15.70;99.90;;;;;;4985266;28;20053;-82
2021/09/08 06:35:47;;;;;;;12.43;6.95;;;15.80;99.90;;;;;;4969039;28;20051;-82
2021/09/08 06:38:12;;;;;;;10.48;6.28;;;16.00;99.90;;;;;;4968932;28;20103;-82
2021/09/08 06:40:38;;;;;;;9.48;7.05;;;16.10;99.90;;;;;;4985540;28;20031;-82
2021/09/08 06:43:04;;;;;;;9.38;6.50;;;16.30;99.90;;;;;;4985306;28;20042;-82
2021/09/08 06:45:49;;;;;;;11.45;8.18;;;16.50;99.90;;;;;;5000990;28;20128;-82
2021/09/08 06:48:15;;;;;;;8.98;5.93;;;16.70;99.90;;;;;;4948070;29;20059;-83
2021/09/08 06:50:41;;;;;;;9.63;6.30;;;16.80;99.90;;;;;;4948486;29;20046;-82
2021/09/08 06:53:07;;;;;;;8.60;6.35;;;17.00;99.90;;;;;;4948473;29;20036;-82
2021/09/08 06:55:32;;;;;;;9.07;6.53;;;17.10;99.90;;;;;;4948289;29;20094;-82
2021/09/08 06:57:58;;;;;;;13.20;7.40;;;17.30;99.90;;;;;;4948287;29;20027;-81
2021/09/08 07:00:24;;;;;;;10.52;6.35;;;17.30;99.90;;;;;;4948210;29;20075;-82
2021/09/08 07:02:49;;;;;;;11.98;6.90;;;17.50;99.90;;;;;;4948225;29;20042;-82
2021/09/08 07:05:17;;;;;;;9.27;6.40;;;17.60;99.90;;;;;;4948111;29;20590;-82
2021/09/08 07:07:43;;;;;;;7.95;5.78;;;17.80;99.90;;;;;;4948072;29;20066;-82
2021/09/08 07:10:09;;;;;;;9.70;6.13;;;17.90;99.90;;;;;;4948061;29;20035;-83
2021/09/08 07:12:35;;;;;;;9.85;6.45;;;18.00;99.90;;;;;;4948452;29;20066;-82
2021/09/08 07:15:00;;;;;;;8.82;5.97;;;18.20;99.90;;;;;;4948078;29;20035;-82
2021/09/08 07:17:26;;;;;;;8.60;6.15;;;18.30;99.90;;;;;;4953040;28;20066;-83
2021/09/08 07:19:52;;;;;;;9.45;5.75;;;18.40;99.90;;;;;;4967512;28;20039;-83
2021/09/08 07:22:17;;;;;;;9.05;6.40;;;18.60;99.90;;;;;;4951567;28;20043;-83
2021/09/08 07:24:43;;;;;;;9.05;5.75;;;18.60;99.90;;;;;;4954391;28;20050;-83
2021/09/08 07:27:10;;;;;;;9.40;6.57;;;18.70;99.90;;;;;;5000641;28;20054;-83
2021/09/08 07:29:35;;;;;;;8.13;5.80;;;18.80;99.90;;;;;;5000767;28;20039;-82
2021/09/08 07:32:01;;;;;;;15.30;6.97;;;18.80;99.90;;;;;;4984523;28;20045;-83
2021/09/08 07:34:27;;;;;;;8.88;5.75;;;19.00;99.90;;;;;;5000717;28;20038;-82
2021/09/08 07:36:52;;;;;;;8.70;6.20;;;19.10;99.90;;;;;;4984600;28;20042;-82
2021/09/08 07:39:18;;;;;;;8.35;6.38;;;19.10;99.90;;;;;;5000761;28;20031;-82
2021/09/08 07:41:44;;;;;;;8.32;5.57;;;19.20;99.90;;;;;;5000831;28;20042;-83
2021/09/08 07:44:09;;;;;;;7.68;5.57;;;19.50;99.90;;;;;;4984560;28;20402;-82
2021/09/08 07:46:35;;;;;;;9.05;6.40;;;19.50;99.90;;;;;;4985465;28;20050;-82
2021/09/08 07:49:02;;;;;;;7.63;5.28;;;19.60;99.90;;;;;;4984075;28;20047;-82
2021/09/08 07:51:27;;;;;;;8.65;6.00;;;19.70;99.90;;;;;;5000673;28;20034;-82
2021/09/08 07:53:53;;;;;;;8.52;5.22;;;19.80;99.90;;;;;;4984311;28;20098;-82
2021/09/08 07:56:19;;;;;;;8.45;5.15;;;20.10;99.90;;;;;;5000524;28;20062;-82
2021/09/08 07:58:45;;;;;;;8.05;6.28;;;20.10;99.90;;;;;;4984076;28;20134;-82
2021/09/08 08:01:10;;;;;;;9.25;5.90;;;20.10;99.90;;;;;;5003178;28;20142;-82
2021/09/08 08:03:37;;;;;;;9.07;6.13;;;20.10;99.90;;;;;;5004064;28;20046;-83
2021/09/08 08:06:03;;;;;;;8.82;6.22;;;20.30;99.90;;;;;;5003951;28;20042;-83
2021/09/08 08:08:28;;;;;;;9.77;6.80;;;20.50;99.90;;;;;;5003803;28;20468;-83
2021/09/08 08:10:54;;;;;;;9.65;5.97;;;20.70;99.90;;;;;;4971605;28;20066;-83
2021/09/08 08:13:20;;;;;;;7.40;5.38;;;20.90;99.90;;;;;;5003922;28;20234;-82
2021/09/08 08:15:45;;;;;;;8.45;5.57;;;21.10;99.90;;;;;;4987416;28;20035;-82
2021/09/08 08:18:11;;;;;;;8.15;5.88;;;21.20;99.90;;;;;;4971183;28;20435;-83
2021/09/08 08:20:36;;;;;;;8.35;5.72;;;21.30;99.90;;;;;;4987529;28;20027;-83
2021/09/08 08:23:03;;;;;;;8.05;5.65;;;21.50;99.90;;;;;;4988669;28;20030;-82
2021/09/08 08:25:29;;;;;;;7.55;4.85;;;21.40;99.90;;;;;;4988496;28;20027;-83
2021/09/08 08:27:56;;;;;;;8.68;4.95;;;21.60;99.90;;;;;;4987242;28;20066;-83
2021/09/08 08:30:23;;;;;;;9.68;6.40;;;21.80;99.90;;;;;;4971064;28;20031;-82
2021/09/08 08:32:49;;;;;;;7.10;5.45;;;21.60;99.90;;;;;;4970882;28;20106;-82
2021/09/08 08:35:15;;;;;;;8.02;5.50;;;21.80;99.90;;;;;;4970828;28;20042;-82
2021/09/08 08:37:42;;;;;;;6.18;4.82;;;22.00;99.90;;;;;;4970792;28;20451;-82
2021/09/08 08:40:09;;;;;;;9.43;5.25;;;22.20;99.90;;;;;;5003389;28;20071;-82
2021/09/08 08:42:36;;;;;;;5.85;4.18;;;22.20;99.90;;;;;;5003334;28;20062;-82
2021/09/08 08:45:02;;;;;;;6.20;4.38;;;22.50;99.90;;;;;;4986984;28;20034;-82
2021/09/08 08:47:29;;;;;;;7.13;4.70;;;22.60;99.90;;;;;;4970365;28;20065;-82
2021/09/08 08:49:55;;;;;;;5.53;4.15;;;22.70;99.90;;;;;;4970923;28;20028;-81
2021/09/08 08:52:22;;;;;;;7.15;5.15;;;23.00;99.90;;;;;;4971056;28;20066;-82
2021/09/08 08:54:47;;;;;;;6.75;4.40;;;23.00;99.90;;;;;;4986843;28;20035;-81
2021/09/08 08:57:15;;;;;;;4.75;3.30;;;23.10;99.90;;;;;;4970663;28;20043;-82
2021/09/08 08:59:43;;;;;;;5.47;4.35;;;23.20;99.90;;;;;;4986782;28;20042;-82
2021/09/08 09:02:39;;;;;;;6.85;4.45;;;23.10;99.90;;;;;;4970529;28;20063;-83
2021/09/08 09:05:06;;;;;;;6.07;4.30;;;23.10;99.90;;;;;;4986215;28;20115;-82
2021/09/08 09:07:34;;;;;;;6.75;4.55;;;23.20;99.90;;;;;;4970483;28;20046;-81
2021/09/08 09:10:10;;;;;;;7.82;4.90;;;23.50;99.90;;;;;;4986780;28;20031;-82
2021/09/08 09:12:45;;;;;;;8.52;5.15;;;23.60;99.90;;;;;;4986667;28;20096;-82
2021/09/08 09:15:17;;;;;;;6.13;4.43;;;23.70;99.90;;;;;;4986880;28;20038;-82
2021/09/08 09:17:43;;;;;;;6.63;4.35;;;23.70;99.90;;;;;;4982982;28;20028;-82
2021/09/08 09:20:30;;;;;;;7.57;4.90;;;23.70;99.90;;;;;;4999520;28;20042;-82
2021/09/08 09:23:03;;;;;;;5.32;3.88;;;23.70;99.90;;;;;;4983319;28;20042;-82
2021/09/08 09:25:37;;;;;;;5.80;4.20;;;23.80;99.90;;;;;;4983172;28;20103;-82
2021/09/08 09:28:05;;;;;;;9.13;4.97;;;24.30;99.90;;;;;;4983001;28;20122;-82
2021/09/08 09:30:34;;;;;;;6.47;4.32;;;24.00;99.90;;;;;;4983135;28;20027;-82
2021/09/08 09:33:00;;;;;;;6.75;4.40;;;24.00;99.90;;;;;;4983011;28;20032;-82
2021/09/08 09:35:31;;;;;;;5.65;3.83;;;24.40;99.90;;;;;;4982872;28;20394;-82
2021/09/08 09:38:00;;;;;;;9.02;4.78;;;24.70;99.90;;;;;;4968462;28;20094;-82
2021/09/08 09:40:29;;;;;;;6.38;4.38;;;24.70;99.90;;;;;;4982797;28;20515;-82
2021/09/08 09:42:55;;;;;;;4.45;3.00;;;24.70;99.90;;;;;;4982967;28;20035;-82
2021/09/08 09:45:21;;;;;;;6.22;4.45;;;24.70;99.90;;;;;;4999075;28;20027;-83
2021/09/08 09:47:48;;;;;;;6.47;4.15;;;24.80;99.90;;;;;;4967245;28;20078;-82
2021/09/08 09:50:17;;;;;;;6.97;4.13;;;25.10;99.90;;;;;;4982495;28;20031;-82
2021/09/08 09:52:48;;;;;;;7.38;4.10;;;24.90;99.90;;;;;;4982510;28;20039;-82
2021/09/08 09:55:14;;;;;;;9.80;4.47;;;25.10;99.90;;;;;;4982352;28;20111;-82
2021/09/08 09:57:41;;;;;;;7.63;4.80;;;25.30;99.90;;;;;;4982288;28;20032;-83
2021/09/08 10:00:08;;;;;;;6.40;4.30;;;25.30;99.90;;;;;;4982348;28;20047;-82
2021/09/08 10:02:38;;;;;;;5.65;4.38;;;25.30;99.90;;;;;;4982032;28;20041;-82
2021/09/08 10:05:04;;;;;;;6.00;4.07;;;25.70;99.90;;;;;;4982010;28;20033;-82
2021/09/08 10:07:30;;;;;;;5.63;4.13;;;25.60;99.90;;;;;;4982676;28;20383;-82
2021/09/08 10:10:01;;;;;;;6.85;4.35;;;25.70;99.90;;;;;;4985293;28;20510;-84
2021/09/08 10:12:34;;;;;;;6.10;4.07;;;25.80;99.90;;;;;;4985339;28;20062;-82
2021/09/08 10:15:01;;;;;;;7.15;3.78;;;25.90;99.90;;;;;;4986631;28;20031;-82
2021/09/08 10:17:42;;;;;;;7.13;4.45;;;26.30;99.90;;;;;;4981801;28;20038;-83
2021/09/08 10:20:11;;;;;;;6.15;4.70;;;26.20;99.90;;;;;;4967087;28;20046;-83
2021/09/08 10:22:39;;;;;;;6.03;4.43;;;26.20;99.90;;;;;;4997966;28;20038;-83
2021/09/08 10:25:14;;;;;;;4.47;3.47;;;26.50;99.90;;;;;;4981706;28;20067;-83
2021/09/08 10:27:41;;;;;;;4.13;3.20;;;26.50;99.90;;;;;;4967003;28;20035;-82
2021/09/08 10:30:08;;;;;;;4.28;3.42;;;26.80;99.90;;;;;;4967162;28;20019;-82
2021/09/08 10:32:35;;;;;;;5.78;3.10;;;26.60;99.90;;;;;;4998115;28;20042;-83
2021/09/08 10:35:12;;;;;;;5.13;3.28;;;26.50;99.90;;;;;;4981532;28;20384;-83
2021/09/08 10:37:38;;;;;;;3.80;3.17;;;26.70;99.90;;;;;;4966992;28;20043;-81
2021/09/08 10:40:08;;;;;;;5.28;3.47;;;26.60;99.90;;;;;;4965608;29;20055;-83
2021/09/08 10:42:56;;;;;;;4.63;3.13;;;26.80;99.90;;;;;;4998136;28;20043;-82
2021/09/08 10:45:29;;;;;;;5.00;3.15;;;26.70;99.90;;;;;;4949407;28;20446;-82
2021/09/08 10:47:58;;;;;;;4.32;2.83;;;27.10;99.90;;;;;;4981623;28;20089;-82
2021/09/08 10:50:46;;;;;;;4.28;2.90;;;27.30;99.90;;;;;;4997697;28;20094;-82
2021/09/08 10:53:24;;;;;;;5.47;2.70;;;27.10;99.90;;;;;;4981647;28;20175;-83
2021/09/08 10:55:51;;;;;;;4.45;3.17;;;27.30;99.90;;;;;;4997575;28;20298;-83
2021/09/08 10:58:17;;;;;;;6.25;3.10;;;27.40;99.90;;;;;;4981433;28;20039;-83
2021/09/08 11:00:44;;;;;;;3.90;2.72;;;26.90;99.90;;;;;;4981422;28;20039;-82
2021/09/08 11:03:16;;;;;;;5.63;2.78;;;26.80;99.90;;;;;;4966739;28;20035;-82
2021/09/08 11:05:52;;;;;;;4.10;2.67;;;26.80;99.90;;;;;;4966403;28;20059;-82
2021/09/08 11:08:31;;;;;;;3.95;2.90;;;27.00;99.90;;;;;;4984580;28;20471;-81
2021/09/08 11:11:19;;;;;;;3.10;2.13;;;27.20;99.90;;;;;;5000880;28;20089;-82
2021/09/08 11:13:47;;;;;;;3.90;2.40;;;27.10;99.90;;;;;;5000794;28;20031;-82
2021/09/08 11:16:18;;;;;;;5.82;2.70;;;26.90;99.90;;;;;;5000388;28;20031;-81
2021/09/08 11:18:44;;;;;;;4.03;3.13;;;27.00;99.90;;;;;;5000769;28;20046;-83
2021/09/08 11:21:10;;;;;;;4.20;3.13;;;27.10;99.90;;;;;;4968211;28;20034;-82
2021/09/08 11:23:35;;;;;;;4.78;2.85;;;27.10;99.90;;;;;;4968431;28;20077;-82
2021/09/08 11:26:09;;;;;;;4.57;3.00;;;27.30;99.90;;;;;;4984198;28;20569;-81
2021/09/08 11:28:36;;;;;;;3.72;3.10;;;27.50;99.90;;;;;;4984559;28;20467;-82
2021/09/08 11:31:17;;;;;;;3.28;2.97;;;27.20;99.90;;;;;;4984577;28;20038;-82
2021/09/08 11:33:43;;;;;;;4.03;2.35;;;27.60;99.90;;;;;;4984435;28;20027;-81
2021/09/08 11:36:19;;;;;;;4.13;2.20;;;27.80;99.90;;;;;;4970762;28;20045;-82
2021/09/08 11:38:56;;;;;;;4.85;2.45;;;27.80;99.90;;;;;;4971963;28;20026;-83
2021/09/08 11:41:22;;;;;;;4.75;3.00;;;27.90;99.90;;;;;;5004446;28;20034;-81
2021/09/08 11:43:50;;;;;;;4.20;2.63;;;27.70;99.90;;;;;;4971920;28;20031;-81
2021/09/08 11:46:28;;;;;;;3.92;2.88;;;27.90;99.90;;;;;;4987796;28;20046;-81
2021/09/08 11:49:01;;;;;;;3.88;3.00;;;27.60;99.90;;;;;;4971697;28;20054;-81
2021/09/08 11:51:26;;;;;;;3.35;2.83;;;27.50;99.90;;;;;;4987822;28;20083;-82
2021/09/08 11:53:54;;;;;;;4.10;2.70;;;27.60;99.90;;;;;;5004200;28;20041;-82
2021/09/08 11:56:25;;;;;;;3.40;2.65;;;27.80;99.90;;;;;;4971534;28;20026;-82
2021/09/08 11:58:58;;;;;;;2.72;2.03;;;27.70;99.90;;;;;;4987734;28;20038;-81
2021/09/08 12:01:25;;;;;;;5.45;2.40;;;28.00;99.90;;;;;;4987737;28;20050;-82
2021/09/08 12:03:53;;;;;;;3.70;3.05;;;27.90;99.90;;;;;;4987712;28;20027;-83
2021/09/08 12:06:22;;;;;;;3.55;2.33;;;27.70;99.90;;;;;;4971223;28;20054;-82
2021/09/08 12:08:52;;;;;;;2.72;2.08;;;28.10;99.90;;;;;;4988893;28;20026;-82
2021/09/08 12:11:41;;;;;;;3.53;2.72;;;28.30;99.90;;;;;;4987651;28;20066;-82
2021/09/08 12:14:32;;;;;;;4.13;2.28;;;28.20;99.90;;;;;;4988772;28;20105;-82
2021/09/08 12:17:07;;;;;;;2.85;2.28;;;28.20;99.90;;;;;;4987238;28;20062;-82
2021/09/08 12:19:35;;;;;;;3.70;2.72;;;28.20;99.90;;;;;;4971508;28;20142;-82
2021/09/08 12:22:19;;;;;;;3.75;1.80;;;28.10;99.90;;;;;;4988897;28;20038;-81
2021/09/08 12:24:55;;;;;;;4.22;3.00;;;28.40;99.90;;;;;;4987525;28;20121;-82
2021/09/08 12:27:36;;;;;;;3.42;2.47;;;28.30;99.90;;;;;;4987527;28;20043;-81
2021/09/08 12:30:09;;;;;;;4.07;3.22;;;28.10;99.90;;;;;;4987489;28;20031;-82
2021/09/08 12:32:47;;;;;;;2.80;1.90;;;28.00;99.90;;;;;;4971160;28;20034;-81
2021/09/08 12:35:32;;;;;;;3.45;2.50;;;28.20;99.90;;;;;;4970970;28;20034;-81
2021/09/08 12:37:58;;;;;;;3.50;2.50;;;28.40;99.90;;;;;;5003266;28;20026;-82
2021/09/08 12:40:24;;;;;;;3.95;2.35;;;28.50;99.90;;;;;;4987282;28;20046;-81
2021/09/08 12:42:50;;;;;;;3.33;2.33;;;28.90;99.90;;;;;;5003194;28;20035;-82
2021/09/08 12:45:15;;;;;;;4.00;2.35;;;28.90;99.90;;;;;;4986773;28;20038;-82